createdAt,value
2017-12-03T00:00:10.937Z,0
2017-12-03T00:00:51.486Z,0
2017-12-03T00:01:31.988Z,0
2017-12-03T00:02:12.516Z,0
2017-12-03T00:02:53.050Z,0
2017-12-03T00:03:33.628Z,0
2017-12-03T00:04:14.123Z,0
2017-12-03T00:04:54.713Z,0
2017-12-03T00:05:35.293Z,0
2017-12-03T00:06:15.841Z,0
2017-12-03T00:06:56.421Z,0
2017-12-03T00:07:36.954Z,0
2017-12-03T00:08:17.440Z,0
2017-12-03T00:08:58.005Z,0
2017-12-03T00:09:38.560Z,0
2017-12-03T00:10:19.048Z,0
2017-12-03T00:10:59.636Z,0
2017-12-03T00:11:40.189Z,0
2017-12-03T00:12:20.838Z,0
2017-12-03T00:13:01.399Z,0
2017-12-03T00:13:41.959Z,0
2017-12-03T00:14:22.495Z,0
2017-12-03T00:15:03.065Z,0
2017-12-03T00:15:43.599Z,0
2017-12-03T00:16:24.132Z,0
2017-12-03T00:17:04.661Z,0
2017-12-03T00:17:45.237Z,0
2017-12-03T00:18:25.773Z,0
2017-12-03T00:19:06.295Z,0
2017-12-03T00:19:46.871Z,0
2017-12-03T00:20:27.384Z,0
2017-12-03T00:21:07.890Z,0
2017-12-03T00:21:48.436Z,0
2017-12-03T00:22:28.982Z,0
2017-12-03T00:23:09.510Z,0
2017-12-03T00:23:50.084Z,0
2017-12-03T00:24:30.592Z,0
2017-12-03T00:25:11.163Z,0
2017-12-03T00:25:51.693Z,0
2017-12-03T00:26:32.290Z,0
2017-12-03T00:27:12.792Z,0
2017-12-03T00:27:53.318Z,0
2017-12-03T00:28:33.873Z,0
2017-12-03T00:29:14.384Z,0
2017-12-03T00:29:54.960Z,0
2017-12-03T00:30:35.458Z,0
2017-12-03T00:31:16.072Z,0
2017-12-03T00:31:56.625Z,0
2017-12-03T00:32:37.168Z,0
2017-12-03T00:33:17.729Z,0
2017-12-03T00:33:58.271Z,0
2017-12-03T00:34:38.828Z,0
2017-12-03T00:35:19.914Z,0
2017-12-03T00:36:00.444Z,0
2017-12-03T00:36:40.987Z,0
2017-12-03T00:37:21.548Z,0
2017-12-03T00:38:02.066Z,0
2017-12-03T00:38:42.572Z,0
2017-12-03T00:39:23.134Z,0
2017-12-03T00:40:03.685Z,0
2017-12-03T00:40:44.194Z,0
2017-12-03T00:41:24.769Z,0
2017-12-03T00:42:05.286Z,0
2017-12-03T00:42:45.842Z,0
2017-12-03T00:43:26.359Z,0
2017-12-03T00:44:06.928Z,0
2017-12-03T00:44:47.484Z,0
2017-12-03T00:45:28.010Z,0
2017-12-03T00:46:08.536Z,0
2017-12-03T00:46:49.088Z,0
2017-12-03T00:47:29.629Z,0
2017-12-03T00:48:10.216Z,0
2017-12-03T00:48:50.771Z,0
2017-12-03T00:49:31.283Z,0
2017-12-03T00:50:11.831Z,0
2017-12-03T00:50:52.391Z,0
2017-12-03T00:51:32.923Z,0
2017-12-03T00:52:13.459Z,0
2017-12-03T00:52:54.020Z,0
2017-12-03T00:53:34.572Z,0
2017-12-03T00:54:15.097Z,0
2017-12-03T00:54:55.678Z,0
2017-12-03T00:55:36.200Z,0
2017-12-03T00:56:16.713Z,0
2017-12-03T00:56:57.258Z,0
2017-12-03T00:57:37.846Z,0
2017-12-03T00:58:18.354Z,0
2017-12-03T00:58:58.909Z,0
2017-12-03T00:59:39.456Z,0
2017-12-03T01:00:19.988Z,0
2017-12-03T01:01:00.488Z,0
2017-12-03T01:01:41.080Z,0
2017-12-03T01:02:21.680Z,0
2017-12-03T01:03:02.187Z,0
2017-12-03T01:03:42.752Z,0
2017-12-03T01:04:23.270Z,0
2017-12-03T01:05:03.774Z,0
2017-12-03T01:05:44.343Z,0
2017-12-03T01:06:24.872Z,0
2017-12-03T01:07:05.411Z,0
2017-12-03T01:07:45.953Z,0
2017-12-03T01:08:26.516Z,0
2017-12-03T01:09:07.008Z,0
2017-12-03T01:09:47.565Z,0
2017-12-03T01:10:28.120Z,0
2017-12-03T01:11:08.646Z,0
2017-12-03T01:11:49.186Z,0
2017-12-03T01:12:29.735Z,0
2017-12-03T01:13:10.304Z,0
2017-12-03T01:13:50.817Z,0
2017-12-03T01:14:31.360Z,0
2017-12-03T01:15:11.893Z,0
2017-12-03T01:15:52.465Z,0
2017-12-03T01:16:33.016Z,0
2017-12-03T01:17:13.536Z,0
2017-12-03T01:17:54.072Z,0
2017-12-03T01:18:34.608Z,0
2017-12-03T01:19:15.142Z,0
2017-12-03T01:19:55.709Z,0
2017-12-03T01:20:36.283Z,0
2017-12-03T01:21:16.793Z,0
2017-12-03T01:21:57.310Z,0
2017-12-03T01:22:37.919Z,0
2017-12-03T01:23:18.433Z,0
2017-12-03T01:23:58.955Z,0
2017-12-03T01:24:39.465Z,0
2017-12-03T01:25:20.083Z,0
2017-12-03T01:26:00.637Z,0
2017-12-03T01:26:41.172Z,0
2017-12-03T01:27:21.726Z,0
2017-12-03T01:28:02.228Z,0
2017-12-03T01:28:42.761Z,0
2017-12-03T01:29:23.357Z,0
2017-12-03T01:30:03.888Z,0
2017-12-03T01:30:44.455Z,0
2017-12-03T01:31:24.996Z,0
2017-12-03T01:32:05.538Z,0
2017-12-03T01:32:46.050Z,0
2017-12-03T01:33:26.608Z,0
2017-12-03T01:34:07.257Z,0
2017-12-03T01:34:47.752Z,0
2017-12-03T01:35:28.327Z,0
2017-12-03T01:36:08.835Z,0
2017-12-03T01:36:49.407Z,0
2017-12-03T01:37:29.916Z,0
2017-12-03T01:38:10.398Z,0
2017-12-03T01:38:50.971Z,0
2017-12-03T01:39:31.498Z,0
2017-12-03T01:40:12.041Z,0
2017-12-03T01:40:52.551Z,0
2017-12-03T01:41:33.065Z,0
2017-12-03T01:42:13.608Z,0
2017-12-03T01:42:54.230Z,0
2017-12-03T01:43:34.712Z,0
2017-12-03T01:44:15.250Z,0
2017-12-03T01:44:55.783Z,0
2017-12-03T01:45:36.311Z,0
2017-12-03T01:46:16.840Z,0
2017-12-03T01:46:57.510Z,0
2017-12-03T01:47:38.085Z,0
2017-12-03T01:48:18.608Z,0
2017-12-03T01:48:59.114Z,0
2017-12-03T01:49:39.738Z,0
2017-12-03T01:50:20.275Z,0
2017-12-03T01:51:00.779Z,0
2017-12-03T01:51:41.304Z,0
2017-12-03T01:52:21.886Z,0
2017-12-03T01:53:02.423Z,0
2017-12-03T01:53:42.919Z,0
2017-12-03T01:54:23.482Z,0
2017-12-03T01:55:03.990Z,0
2017-12-03T01:55:44.520Z,0
2017-12-03T01:56:25.304Z,0
2017-12-03T01:57:05.892Z,0
2017-12-03T01:57:46.394Z,0
2017-12-03T01:58:26.929Z,0
2017-12-03T01:59:07.460Z,0
2017-12-03T01:59:48.018Z,0
2017-12-03T02:00:28.547Z,0
2017-12-03T02:01:09.082Z,0
2017-12-03T02:01:49.648Z,0
2017-12-03T02:02:30.166Z,0
2017-12-03T02:03:10.707Z,0
2017-12-03T02:03:51.231Z,0
2017-12-03T02:04:31.782Z,0
2017-12-03T02:05:12.758Z,0
2017-12-03T02:05:52.868Z,0
2017-12-03T02:06:33.400Z,0
2017-12-03T02:07:13.984Z,0
2017-12-03T02:07:54.522Z,0
2017-12-03T02:08:35.158Z,0
2017-12-03T02:09:15.753Z,0
2017-12-03T02:09:56.248Z,0
2017-12-03T02:10:36.795Z,0
2017-12-03T02:11:17.303Z,0
2017-12-03T02:11:57.842Z,0
2017-12-03T02:12:38.383Z,0
2017-12-03T02:13:18.946Z,0
2017-12-03T02:13:59.450Z,0
2017-12-03T02:14:39.962Z,0
2017-12-03T02:15:20.503Z,0
2017-12-03T02:16:01.036Z,0
2017-12-03T02:16:41.598Z,0
2017-12-03T02:17:22.156Z,0
2017-12-03T02:18:02.708Z,0
2017-12-03T02:18:43.266Z,0
2017-12-03T02:19:23.788Z,0
2017-12-03T02:20:04.323Z,0
2017-12-03T02:20:44.860Z,0
2017-12-03T02:21:25.399Z,0
2017-12-03T02:22:05.975Z,0
2017-12-03T02:22:46.464Z,0
2017-12-03T02:23:27.044Z,0
2017-12-03T02:24:07.610Z,0
2017-12-03T02:24:48.164Z,0
2017-12-03T02:25:28.676Z,0
2017-12-03T02:26:09.213Z,0
2017-12-03T02:26:49.780Z,0
2017-12-03T02:27:30.310Z,0
2017-12-03T02:28:10.821Z,0
2017-12-03T02:28:51.363Z,0
2017-12-03T02:29:31.909Z,0
2017-12-03T02:30:12.467Z,0
2017-12-03T02:30:52.995Z,0
2017-12-03T02:31:33.551Z,0
2017-12-03T02:32:14.062Z,0
2017-12-03T02:32:54.621Z,0
2017-12-03T02:33:35.161Z,0
2017-12-03T02:34:15.678Z,0
2017-12-03T02:34:56.767Z,0
2017-12-03T02:35:36.765Z,0
2017-12-03T02:36:17.258Z,0
2017-12-03T02:36:57.829Z,0
2017-12-03T02:37:38.337Z,0
2017-12-03T02:38:18.855Z,0
2017-12-03T02:38:59.398Z,0
2017-12-03T02:39:39.950Z,0
2017-12-03T02:40:20.517Z,0
2017-12-03T02:41:01.035Z,0
2017-12-03T02:41:41.568Z,0
2017-12-03T02:42:22.112Z,0
2017-12-03T02:43:02.657Z,0
2017-12-03T02:43:43.236Z,0
2017-12-03T02:44:23.769Z,0
2017-12-03T02:45:04.281Z,0
2017-12-03T02:45:44.801Z,0
2017-12-03T02:46:25.351Z,0
2017-12-03T02:47:05.884Z,0
2017-12-03T02:47:46.425Z,0
2017-12-03T02:48:26.981Z,0
2017-12-03T02:49:07.499Z,0
2017-12-03T02:49:48.005Z,0
2017-12-03T02:50:28.553Z,0
2017-12-03T02:51:09.073Z,0
2017-12-03T02:51:49.603Z,0
2017-12-03T02:52:30.119Z,0
2017-12-03T02:53:10.657Z,0
2017-12-03T02:53:51.196Z,0
2017-12-03T02:54:31.743Z,0
2017-12-03T02:55:12.300Z,0
2017-12-03T02:55:52.758Z,0
2017-12-03T02:56:33.355Z,0
2017-12-03T02:57:13.866Z,0
2017-12-03T02:57:54.413Z,0
2017-12-03T02:58:34.932Z,0
2017-12-03T02:59:15.499Z,0
2017-12-03T02:59:56.029Z,0
2017-12-03T03:00:36.527Z,0
2017-12-03T03:01:17.066Z,0
2017-12-03T03:01:57.581Z,0
2017-12-03T03:02:38.156Z,0
2017-12-03T03:03:18.721Z,0
2017-12-03T03:03:59.322Z,0
2017-12-03T03:04:39.822Z,0
2017-12-03T03:05:20.371Z,0
2017-12-03T03:06:00.911Z,0
2017-12-03T03:06:41.452Z,0
2017-12-03T03:07:21.967Z,0
2017-12-03T03:08:02.515Z,0
2017-12-03T03:08:43.012Z,0
2017-12-03T03:09:23.557Z,0
2017-12-03T03:10:04.054Z,0
2017-12-03T03:10:44.572Z,0
2017-12-03T03:11:25.117Z,0
2017-12-03T03:12:05.670Z,0
2017-12-03T03:12:46.204Z,0
2017-12-03T03:13:26.690Z,0
2017-12-03T03:14:07.205Z,0
2017-12-03T03:14:47.746Z,0
2017-12-03T03:15:28.266Z,0
2017-12-03T03:16:08.791Z,0
2017-12-03T03:16:49.335Z,0
2017-12-03T03:17:29.868Z,0
2017-12-03T03:18:10.417Z,0
2017-12-03T03:18:51.022Z,0
2017-12-03T03:19:31.571Z,0
2017-12-03T03:20:12.102Z,0
2017-12-03T03:20:52.655Z,0
2017-12-03T03:21:33.188Z,0
2017-12-03T03:22:13.696Z,0
2017-12-03T03:22:54.205Z,0
2017-12-03T03:23:34.750Z,0
2017-12-03T03:24:15.293Z,0
2017-12-03T03:24:55.819Z,0
2017-12-03T03:25:36.378Z,0
2017-12-03T03:26:16.875Z,0
2017-12-03T03:26:57.394Z,0
2017-12-03T03:27:37.946Z,0
2017-12-03T03:28:18.438Z,0
2017-12-03T03:28:58.985Z,0
2017-12-03T03:29:39.594Z,0
2017-12-03T03:30:20.153Z,0
2017-12-03T03:31:00.698Z,0
2017-12-03T03:31:41.237Z,0
2017-12-03T03:32:21.793Z,0
2017-12-03T03:33:02.315Z,0
2017-12-03T03:33:42.827Z,0
2017-12-03T03:34:23.351Z,0
2017-12-03T03:35:03.888Z,0
2017-12-03T03:35:44.457Z,0
2017-12-03T03:36:25.009Z,0
2017-12-03T03:37:05.516Z,0
2017-12-03T03:37:46.044Z,0
2017-12-03T03:38:26.579Z,0
2017-12-03T03:39:07.103Z,0
2017-12-03T03:39:47.643Z,0
2017-12-03T03:40:28.176Z,0
2017-12-03T03:41:08.713Z,0
2017-12-03T03:41:49.278Z,0
2017-12-03T03:42:29.811Z,0
2017-12-03T03:43:10.323Z,0
2017-12-03T03:43:50.901Z,0
2017-12-03T03:44:31.467Z,0
2017-12-03T03:45:11.950Z,0
2017-12-03T03:45:52.452Z,0
2017-12-03T03:46:32.945Z,0
2017-12-03T03:47:13.521Z,0
2017-12-03T03:47:54.057Z,0
2017-12-03T03:48:34.650Z,0
2017-12-03T03:49:15.099Z,0
2017-12-03T03:49:55.651Z,0
2017-12-03T03:50:36.191Z,0
2017-12-03T03:51:16.737Z,0
2017-12-03T03:51:57.264Z,0
2017-12-03T03:52:37.873Z,0
2017-12-03T03:53:18.334Z,0
2017-12-03T03:53:58.846Z,0
2017-12-03T03:54:39.386Z,0
2017-12-03T03:55:19.917Z,0
2017-12-03T03:56:00.453Z,0
2017-12-03T03:56:40.973Z,0
2017-12-03T03:57:21.549Z,0
2017-12-03T03:58:02.110Z,0
2017-12-03T03:58:42.634Z,0
2017-12-03T03:59:23.230Z,0
2017-12-03T04:00:03.754Z,0
2017-12-03T04:00:44.375Z,0
2017-12-03T04:01:24.834Z,0
2017-12-03T04:02:05.359Z,0
2017-12-03T04:02:45.899Z,0
2017-12-03T04:03:26.454Z,0
2017-12-03T04:04:07.023Z,0
2017-12-03T04:04:47.547Z,0
2017-12-03T04:05:28.070Z,0
2017-12-03T04:06:08.587Z,0
2017-12-03T04:06:49.133Z,0
2017-12-03T04:07:29.688Z,0
2017-12-03T04:08:10.204Z,0
2017-12-03T04:08:50.733Z,0
2017-12-03T04:09:31.244Z,0
2017-12-03T04:10:11.806Z,0
2017-12-03T04:10:52.337Z,0
2017-12-03T04:11:32.929Z,0
2017-12-03T04:12:13.431Z,0
2017-12-03T04:12:53.966Z,0
2017-12-03T04:13:34.492Z,0
2017-12-03T04:14:15.030Z,0
2017-12-03T04:14:55.605Z,0
2017-12-03T04:15:36.133Z,0
2017-12-03T04:16:16.720Z,0
2017-12-03T04:16:57.228Z,0
2017-12-03T04:17:37.765Z,0
2017-12-03T04:18:18.273Z,0
2017-12-03T04:18:58.848Z,0
2017-12-03T04:19:39.359Z,0
2017-12-03T04:20:19.898Z,0
2017-12-03T04:21:00.449Z,0
2017-12-03T04:21:40.976Z,0
2017-12-03T04:22:21.510Z,0
2017-12-03T04:23:02.101Z,0
2017-12-03T04:23:42.666Z,0
2017-12-03T04:24:23.196Z,0
2017-12-03T04:25:03.734Z,0
2017-12-03T04:25:44.279Z,0
2017-12-03T04:26:24.848Z,0
2017-12-03T04:27:05.382Z,0
2017-12-03T04:27:45.882Z,0
2017-12-03T04:28:26.406Z,0
2017-12-03T04:29:06.966Z,0
2017-12-03T04:29:47.502Z,0
2017-12-03T04:30:28.048Z,0
2017-12-03T04:31:08.579Z,0
2017-12-03T04:31:49.108Z,0
2017-12-03T04:32:29.643Z,0
2017-12-03T04:33:10.160Z,0
2017-12-03T04:33:50.704Z,0
2017-12-03T04:34:31.241Z,0
2017-12-03T04:35:11.824Z,0
2017-12-03T04:35:52.374Z,0
2017-12-03T04:36:32.928Z,0
2017-12-03T04:37:13.456Z,0
2017-12-03T04:37:53.939Z,0
2017-12-03T04:38:34.503Z,0
2017-12-03T04:39:15.015Z,0
2017-12-03T04:39:55.560Z,0
2017-12-03T04:40:36.077Z,0
2017-12-03T04:41:16.715Z,0
2017-12-03T04:41:57.243Z,0
2017-12-03T04:42:37.770Z,0
2017-12-03T04:43:18.307Z,0
2017-12-03T04:43:58.896Z,0
2017-12-03T04:44:39.376Z,0
2017-12-03T04:45:19.980Z,0
2017-12-03T04:46:00.471Z,0
2017-12-03T04:46:40.976Z,0
2017-12-03T04:47:21.530Z,0
2017-12-03T04:48:02.024Z,0
2017-12-03T04:48:42.603Z,0
2017-12-03T04:49:23.109Z,0
2017-12-03T04:50:03.659Z,0
2017-12-03T04:50:44.160Z,0
2017-12-03T04:51:24.719Z,0
2017-12-03T04:52:05.264Z,0
2017-12-03T04:52:45.832Z,0
2017-12-03T04:53:26.347Z,0
2017-12-03T04:54:06.877Z,0
2017-12-03T04:54:47.448Z,0
2017-12-03T04:55:27.970Z,0
2017-12-03T04:56:08.492Z,0
2017-12-03T04:56:49.042Z,0
2017-12-03T04:57:29.550Z,0
2017-12-03T04:58:10.137Z,0
2017-12-03T04:58:50.660Z,0
2017-12-03T04:59:31.194Z,0
2017-12-03T05:00:11.735Z,0
2017-12-03T05:00:52.252Z,0
2017-12-03T05:01:32.779Z,0
2017-12-03T05:02:13.329Z,0
2017-12-03T05:02:53.911Z,0
2017-12-03T05:03:34.436Z,0
2017-12-03T05:04:14.917Z,0
2017-12-03T05:04:55.492Z,0
2017-12-03T05:05:36.055Z,0
2017-12-03T05:06:16.590Z,0
2017-12-03T05:06:57.103Z,0
2017-12-03T05:07:37.738Z,0
2017-12-03T05:08:18.299Z,0
2017-12-03T05:08:58.808Z,0
2017-12-03T05:09:39.379Z,0
2017-12-03T05:10:19.921Z,0
2017-12-03T05:11:00.474Z,0
2017-12-03T05:11:41.011Z,0
2017-12-03T05:12:21.541Z,0
2017-12-03T05:13:02.040Z,0
2017-12-03T05:13:42.601Z,0
2017-12-03T05:14:23.138Z,0
2017-12-03T05:15:03.683Z,0
2017-12-03T05:15:44.205Z,0
2017-12-03T05:16:24.726Z,0
2017-12-03T05:17:05.267Z,0
2017-12-03T05:17:45.931Z,0
2017-12-03T05:18:26.450Z,0
2017-12-03T05:19:06.970Z,0
2017-12-03T05:19:47.531Z,0
2017-12-03T05:20:28.070Z,0
2017-12-03T05:21:08.570Z,0
2017-12-03T05:21:49.090Z,0
2017-12-03T05:22:29.699Z,0
2017-12-03T05:23:10.164Z,0
2017-12-03T05:23:50.677Z,0
2017-12-03T05:24:31.197Z,0
2017-12-03T05:25:11.694Z,0
2017-12-03T05:25:52.243Z,0
2017-12-03T05:26:32.783Z,0
2017-12-03T05:27:13.335Z,0
2017-12-03T05:27:53.857Z,0
2017-12-03T05:28:34.390Z,0
2017-12-03T05:29:14.925Z,0
2017-12-03T05:29:55.506Z,0
2017-12-03T05:30:36.067Z,0
2017-12-03T05:31:16.613Z,0
2017-12-03T05:31:57.147Z,0
2017-12-03T05:32:37.703Z,0
2017-12-03T05:33:18.219Z,0
2017-12-03T05:33:58.758Z,0
2017-12-03T05:34:39.279Z,0
2017-12-03T05:35:19.830Z,0
2017-12-03T05:36:00.372Z,0
2017-12-03T05:36:40.904Z,0
2017-12-03T05:37:21.457Z,0
2017-12-03T05:38:02.041Z,0
2017-12-03T05:38:42.576Z,0
2017-12-03T05:39:23.114Z,0
2017-12-03T05:40:03.674Z,0
2017-12-03T05:40:44.206Z,0
2017-12-03T05:41:24.734Z,0
2017-12-03T05:42:05.304Z,0
2017-12-03T05:42:45.856Z,0
2017-12-03T05:43:26.409Z,0
2017-12-03T05:44:06.960Z,0
2017-12-03T05:44:47.414Z,0
2017-12-03T05:45:27.958Z,0
2017-12-03T05:46:08.494Z,0
2017-12-03T05:46:49.002Z,0
2017-12-03T05:47:29.604Z,0
2017-12-03T05:48:10.108Z,0
2017-12-03T05:48:50.636Z,0
2017-12-03T05:49:31.191Z,0
2017-12-03T05:50:11.697Z,0
2017-12-03T05:50:52.258Z,0
2017-12-03T05:51:32.818Z,0
2017-12-03T05:52:13.472Z,0
2017-12-03T05:52:54.018Z,0
2017-12-03T05:53:34.568Z,0
2017-12-03T05:54:15.048Z,0
2017-12-03T05:54:55.588Z,0
2017-12-03T05:55:36.130Z,0
2017-12-03T05:56:16.682Z,0
2017-12-03T05:56:57.238Z,0
2017-12-03T05:57:37.770Z,0
2017-12-03T05:58:18.323Z,0
2017-12-03T05:58:58.865Z,0
2017-12-03T05:59:39.448Z,0
2017-12-03T06:00:19.931Z,0
2017-12-03T06:01:00.459Z,0
2017-12-03T06:01:40.969Z,0
2017-12-03T06:02:21.517Z,0
2017-12-03T06:03:02.031Z,0
2017-12-03T06:03:42.564Z,0
2017-12-03T06:04:23.122Z,0
2017-12-03T06:05:03.621Z,0
2017-12-03T06:05:44.157Z,0
2017-12-03T06:06:24.666Z,0
2017-12-03T06:07:05.218Z,0
2017-12-03T06:07:45.755Z,0
2017-12-03T06:08:26.304Z,0
2017-12-03T06:09:06.815Z,0
2017-12-03T06:09:47.358Z,0
2017-12-03T06:10:27.910Z,0
2017-12-03T06:11:08.415Z,0
2017-12-03T06:11:48.933Z,0
2017-12-03T06:12:29.496Z,0
2017-12-03T06:13:10.019Z,0
2017-12-03T06:13:50.562Z,0
2017-12-03T06:14:31.127Z,0
2017-12-03T06:15:11.658Z,0
2017-12-03T06:15:52.197Z,0
2017-12-03T06:16:32.717Z,0
2017-12-03T06:17:13.241Z,0
2017-12-03T06:17:53.785Z,0
2017-12-03T06:18:34.283Z,0
2017-12-03T06:19:14.839Z,0
2017-12-03T06:19:55.346Z,0
2017-12-03T06:20:35.901Z,0
2017-12-03T06:21:16.418Z,0
2017-12-03T06:21:56.924Z,0
2017-12-03T06:22:37.492Z,0
2017-12-03T06:23:18.021Z,0
2017-12-03T06:23:58.581Z,0
2017-12-03T06:24:39.078Z,0
2017-12-03T06:25:19.595Z,0
2017-12-03T06:26:00.189Z,0
2017-12-03T06:26:40.688Z,0
2017-12-03T06:27:21.229Z,0
2017-12-03T06:28:01.737Z,0
2017-12-03T06:28:42.285Z,0
2017-12-03T06:29:22.820Z,0
2017-12-03T06:30:03.339Z,0
2017-12-03T06:30:43.867Z,0
2017-12-03T06:31:24.411Z,0
2017-12-03T06:32:04.906Z,0
2017-12-03T06:32:45.447Z,0
2017-12-03T06:33:25.979Z,0
2017-12-03T06:34:06.507Z,0
2017-12-03T06:34:47.049Z,0
2017-12-03T06:35:27.564Z,0
2017-12-03T06:36:08.217Z,0
2017-12-03T06:36:48.766Z,0
2017-12-03T06:37:29.306Z,0
2017-12-03T06:38:09.788Z,0
2017-12-03T06:38:50.319Z,0
2017-12-03T06:39:30.903Z,0
2017-12-03T06:40:11.457Z,0
2017-12-03T06:40:51.928Z,0
2017-12-03T06:41:32.484Z,0
2017-12-03T06:42:13.031Z,0
2017-12-03T06:42:53.588Z,0
2017-12-03T06:43:34.168Z,0
2017-12-03T06:44:14.756Z,0
2017-12-03T06:44:55.256Z,0
2017-12-03T06:45:35.810Z,0
2017-12-03T06:46:16.357Z,0
2017-12-03T06:46:56.890Z,0
2017-12-03T06:47:37.424Z,0
2017-12-03T06:48:17.963Z,0
2017-12-03T06:48:58.523Z,0
2017-12-03T06:49:39.025Z,0
2017-12-03T06:50:19.551Z,0
2017-12-03T06:51:00.080Z,0
2017-12-03T06:51:40.632Z,0
2017-12-03T06:52:21.173Z,0
2017-12-03T06:53:01.741Z,0
2017-12-03T06:53:42.277Z,0
2017-12-03T06:54:22.971Z,0
2017-12-03T06:55:03.494Z,0
2017-12-03T06:55:44.181Z,0
2017-12-03T06:56:24.698Z,0
2017-12-03T06:57:05.240Z,0
2017-12-03T06:57:45.785Z,0
2017-12-03T06:58:26.358Z,0
2017-12-03T06:59:06.880Z,0
2017-12-03T06:59:47.477Z,0
2017-12-03T07:00:27.998Z,0
2017-12-03T07:01:08.577Z,0
2017-12-03T07:01:49.100Z,0
2017-12-03T07:02:29.645Z,0
2017-12-03T07:03:10.185Z,0
2017-12-03T07:03:50.750Z,0
2017-12-03T07:04:31.275Z,0
2017-12-03T07:05:11.847Z,0
2017-12-03T07:05:52.338Z,0
2017-12-03T07:06:32.892Z,0
2017-12-03T07:07:13.410Z,0
2017-12-03T07:07:53.955Z,0
2017-12-03T07:08:34.513Z,0
2017-12-03T07:09:15.033Z,0
2017-12-03T07:09:55.579Z,0
2017-12-03T07:10:36.114Z,0
2017-12-03T07:11:16.648Z,0
2017-12-03T07:11:57.192Z,5
2017-12-03T07:12:37.693Z,5
2017-12-03T07:13:18.240Z,5
2017-12-03T07:13:58.758Z,5
2017-12-03T07:14:39.284Z,5
2017-12-03T07:15:19.853Z,5
2017-12-03T07:16:00.397Z,5
2017-12-03T07:16:40.932Z,5
2017-12-03T07:17:21.492Z,5
2017-12-03T07:18:02.064Z,5
2017-12-03T07:18:42.597Z,5
2017-12-03T07:19:23.121Z,5
2017-12-03T07:20:03.702Z,5
2017-12-03T07:20:44.221Z,5
2017-12-03T07:21:24.750Z,5
2017-12-03T07:22:05.386Z,5
2017-12-03T07:22:46.000Z,5
2017-12-03T07:23:26.504Z,5
2017-12-03T07:24:07.017Z,5
2017-12-03T07:24:47.541Z,5
2017-12-03T07:25:28.086Z,5
2017-12-03T07:26:08.612Z,10
2017-12-03T07:26:49.103Z,10
2017-12-03T07:27:29.649Z,10
2017-12-03T07:28:10.178Z,10
2017-12-03T07:28:50.812Z,10
2017-12-03T07:29:31.347Z,10
2017-12-03T07:30:11.864Z,10
2017-12-03T07:30:52.384Z,15
2017-12-03T07:31:32.933Z,15
2017-12-03T07:32:13.426Z,15
2017-12-03T07:32:54.003Z,15
2017-12-03T07:33:34.561Z,15
2017-12-03T07:34:15.124Z,20
2017-12-03T07:34:55.690Z,20
2017-12-03T07:35:36.229Z,20
2017-12-03T07:36:16.710Z,20
2017-12-03T07:36:57.262Z,20
2017-12-03T07:37:37.785Z,20
2017-12-03T07:38:18.310Z,20
2017-12-03T07:38:58.851Z,25
2017-12-03T07:39:39.403Z,25
2017-12-03T07:40:20.009Z,25
2017-12-03T07:41:00.643Z,25
2017-12-03T07:41:41.169Z,20
2017-12-03T07:42:21.688Z,20
2017-12-03T07:43:02.186Z,20
2017-12-03T07:43:42.671Z,20
2017-12-03T07:44:23.249Z,25
2017-12-03T07:45:03.766Z,25
2017-12-03T07:45:44.311Z,25
2017-12-03T07:46:24.864Z,25
2017-12-03T07:47:05.376Z,25
2017-12-03T07:47:45.950Z,25
2017-12-03T07:48:26.463Z,25
2017-12-03T07:49:07.047Z,25
2017-12-03T07:49:47.549Z,25
2017-12-03T07:50:28.064Z,25
2017-12-03T07:51:08.610Z,25
2017-12-03T07:51:49.151Z,25
2017-12-03T07:52:29.705Z,25
2017-12-03T07:53:10.267Z,25
2017-12-03T07:53:50.799Z,25
2017-12-03T07:54:31.388Z,25
2017-12-03T07:55:11.898Z,25
2017-12-03T07:55:52.460Z,25
2017-12-03T07:56:33.041Z,30
2017-12-03T07:57:13.569Z,30
2017-12-03T07:57:54.307Z,30
2017-12-03T07:58:34.951Z,30
2017-12-03T07:59:15.429Z,30
2017-12-03T07:59:55.972Z,30
2017-12-03T08:00:36.510Z,35
2017-12-03T08:01:17.039Z,35
2017-12-03T08:01:57.599Z,35
2017-12-03T08:02:38.105Z,30
2017-12-03T08:03:18.772Z,30
2017-12-03T08:03:59.239Z,30
2017-12-03T08:04:39.852Z,30
2017-12-03T08:05:20.369Z,25
2017-12-03T08:06:00.909Z,25
2017-12-03T08:06:41.461Z,25
2017-12-03T08:07:22.022Z,25
2017-12-03T08:08:02.585Z,25
2017-12-03T08:08:43.102Z,25
2017-12-03T08:09:23.602Z,25
2017-12-03T08:10:04.214Z,25
2017-12-03T08:10:44.728Z,25
2017-12-03T08:11:25.245Z,25
2017-12-03T08:12:05.855Z,25
2017-12-03T08:12:46.349Z,25
2017-12-03T08:13:26.881Z,25
2017-12-03T08:14:07.443Z,25
2017-12-03T08:14:48.010Z,30
2017-12-03T08:15:28.521Z,25
2017-12-03T08:16:09.070Z,25
2017-12-03T08:16:49.556Z,25
2017-12-03T08:17:30.095Z,25
2017-12-03T08:18:10.668Z,25
2017-12-03T08:18:51.146Z,25
2017-12-03T08:19:31.679Z,25
2017-12-03T08:20:12.226Z,25
2017-12-03T08:20:52.765Z,30
2017-12-03T08:21:33.309Z,30
2017-12-03T08:22:13.828Z,30
2017-12-03T08:22:54.424Z,30
2017-12-03T08:23:34.957Z,30
2017-12-03T08:24:15.519Z,30
2017-12-03T08:24:56.063Z,30
2017-12-03T08:25:36.639Z,30
2017-12-03T08:26:17.140Z,30
2017-12-03T08:26:57.729Z,30
2017-12-03T08:27:38.286Z,30
2017-12-03T08:28:18.830Z,30
2017-12-03T08:28:59.336Z,35
2017-12-03T08:29:39.864Z,35
2017-12-03T08:30:20.397Z,35
2017-12-03T08:31:00.905Z,35
2017-12-03T08:31:41.470Z,35
2017-12-03T08:32:22.015Z,40
2017-12-03T08:33:02.496Z,40
2017-12-03T08:33:43.092Z,40
2017-12-03T08:34:23.588Z,40
2017-12-03T08:35:04.121Z,40
2017-12-03T08:35:44.648Z,40
2017-12-03T08:36:25.154Z,40
2017-12-03T08:37:05.691Z,40
2017-12-03T08:37:46.218Z,40
2017-12-03T08:38:26.796Z,45
2017-12-03T08:39:07.314Z,45
2017-12-03T08:39:47.876Z,45
2017-12-03T08:40:28.404Z,45
2017-12-03T08:41:08.965Z,45
2017-12-03T08:41:49.510Z,45
2017-12-03T08:42:30.058Z,45
2017-12-03T08:43:10.588Z,45
2017-12-03T08:43:51.172Z,45
2017-12-03T08:44:31.733Z,40
2017-12-03T08:45:12.276Z,40
2017-12-03T08:45:52.831Z,40
2017-12-03T08:46:33.402Z,40
2017-12-03T08:47:13.893Z,35
2017-12-03T08:47:54.427Z,35
2017-12-03T08:48:34.956Z,35
2017-12-03T08:49:15.503Z,35
2017-12-03T08:49:56.025Z,35
2017-12-03T08:50:36.587Z,35
2017-12-03T08:51:17.114Z,35
2017-12-03T08:51:57.642Z,35
2017-12-03T08:52:38.149Z,35
2017-12-03T08:53:18.739Z,35
2017-12-03T08:53:59.311Z,35
2017-12-03T08:54:39.897Z,35
2017-12-03T08:55:20.326Z,35
2017-12-03T08:56:00.893Z,35
2017-12-03T08:56:41.394Z,35
2017-12-03T08:57:21.897Z,35
2017-12-03T08:58:02.467Z,35
2017-12-03T08:58:43.009Z,35
2017-12-03T08:59:23.538Z,30
2017-12-03T09:00:04.135Z,30
2017-12-03T09:00:44.772Z,30
2017-12-03T09:01:25.304Z,30
2017-12-03T09:02:05.819Z,30
2017-12-03T09:02:46.377Z,30
2017-12-03T09:03:26.887Z,30
2017-12-03T09:04:07.398Z,25
2017-12-03T09:04:47.936Z,25
2017-12-03T09:05:28.530Z,25
2017-12-03T09:06:09.047Z,25
2017-12-03T09:06:49.561Z,25
2017-12-03T09:07:30.084Z,25
2017-12-03T09:08:10.682Z,25
2017-12-03T09:08:51.230Z,25
2017-12-03T09:09:31.783Z,30
2017-12-03T09:10:12.370Z,30
2017-12-03T09:10:52.902Z,30
2017-12-03T09:11:33.415Z,30
2017-12-03T09:12:13.978Z,30
2017-12-03T09:12:54.503Z,25
2017-12-03T09:13:35.173Z,25
2017-12-03T09:14:15.685Z,25
2017-12-03T09:14:56.230Z,25
2017-12-03T09:15:36.742Z,25
2017-12-03T09:16:17.307Z,25
2017-12-03T09:16:57.804Z,30
2017-12-03T09:17:38.343Z,30
2017-12-03T09:18:18.894Z,25
2017-12-03T09:18:59.448Z,25
2017-12-03T09:19:39.937Z,25
2017-12-03T09:20:20.497Z,20
2017-12-03T09:21:01.051Z,20
2017-12-03T09:21:41.554Z,20
2017-12-03T09:22:22.105Z,20
2017-12-03T09:23:02.628Z,20
2017-12-03T09:23:43.176Z,20
2017-12-03T09:24:23.729Z,20
2017-12-03T09:25:04.328Z,20
2017-12-03T09:25:44.820Z,20
2017-12-03T09:26:25.339Z,25
2017-12-03T09:27:05.857Z,25
2017-12-03T09:27:46.423Z,25
2017-12-03T09:28:26.968Z,25
2017-12-03T09:29:07.477Z,20
2017-12-03T09:29:48.022Z,20
2017-12-03T09:30:28.563Z,20
2017-12-03T09:31:09.123Z,20
2017-12-03T09:31:49.638Z,20
2017-12-03T09:32:30.175Z,15
2017-12-03T09:33:10.789Z,15
2017-12-03T09:33:51.283Z,20
2017-12-03T09:34:31.809Z,20
2017-12-03T09:35:12.386Z,20
2017-12-03T09:35:52.929Z,20
2017-12-03T09:36:33.413Z,20
2017-12-03T09:37:13.975Z,20
2017-12-03T09:37:54.497Z,20
2017-12-03T09:38:35.105Z,20
2017-12-03T09:39:15.647Z,20
2017-12-03T09:39:56.193Z,20
2017-12-03T09:40:36.719Z,20
2017-12-03T09:41:17.236Z,25
2017-12-03T09:41:57.770Z,25
2017-12-03T09:42:38.319Z,25
2017-12-03T09:43:18.845Z,25
2017-12-03T09:43:59.374Z,25
2017-12-03T09:44:39.921Z,25
2017-12-03T09:45:20.415Z,25
2017-12-03T09:46:00.953Z,25
2017-12-03T09:46:41.501Z,25
2017-12-03T09:47:22.007Z,25
2017-12-03T09:48:02.582Z,20
2017-12-03T09:48:43.159Z,20
2017-12-03T09:49:23.617Z,20
2017-12-03T09:50:04.221Z,20
2017-12-03T09:50:44.708Z,20
2017-12-03T09:51:25.202Z,20
2017-12-03T09:52:05.782Z,20
2017-12-03T09:52:46.339Z,20
2017-12-03T09:53:26.896Z,15
2017-12-03T09:54:07.411Z,15